Terminal Aerodrome Forecast
Issued by NWS

Home | Current Version | Previous Version | Text Only | Print | Product List | Glossary On
Versions: 1 2 3 4 5 6 7 8 9 10 11 12 13 14 15 16 17 18 19 20 21 22 23 24 25 26 27
152
FTUS43 KGRB 150401 AAA
TAFCWA
TAF AMD
KCWA 150401Z 1504/1524 25005KT P6SM -SHSN OVC035
      TEMPO 1504/1508 2SM -SHSN BKN018
     FM150800 28007KT P6SM -SHSN BKN023
     FM151800 28008KT P6SM -SHSN BKN030
     FM152200 27005KT 5SM -SHSN BKN029
      AMD LTD TO CLD VIS AND WIND 1504/1512=

USA.gov is the U.S. government's official web portal to all federal, state and local government web resources and services.